Hovedside
METAR-TAF:

METAR-TAF

Lufthavner :

Mariehamn lufthavn

Mariehamn, Finland

breddegrad: 60-07N, lengdegrad: 019-54E, høyde over havet: 6 m

Gjeldene værobservasjon

Denne rapporten ble laget for 23 minutter siden, klokken 21:50 UTC
Vind 5 kt fra Vest, skiftende mellom Sørvest og Vest-nordvest
Temperatur 4°C
Luftfuktighet 65%
Trykk 1005 hPa
Sikt 10 km eller mer
ingen skyer under 1500 m og ingen bygeskyer

METAR: EFMA 242150Z AUTO 26005KT 220V290 CAVOK 04/M02 Q1005

Tid: 00:13 (22:13 UTC)

Varsel

Denne rapporten ble laget for 1 time og 39 minutter siden, klokken 20:34 UTC
Varsel gyldig fra 24. klokken 21 UTC til 25. klokken 06 UTC
Vind 6 kt fra Vest
Sikt 10 km eller mer
ingen skyer under 1500 m og ingen bygeskyer

TAF: EFMA 242034Z 2421/2506 26006KT CAVOK

Værobservasjoner og værvarsel for over 4000 flyplasser (METAR- og TAF-rapporter).

Tilgjengelige stasjoner er representert av de røde og gule prikkene på kartet.

Hold musepekeren over prikken for å se navnet på stasjonen.

Klikk så for å se værobservasjoner og -varsler.

For å forandre kartet kan du klikke på den grønne knappen med svart kryss for å zoome inn, på den grønne knappen med strek for å zoome ut, eller på de grønne pilene for å se tilstøtende kart.


METAR-TAF: